EDT,Max TemperatureF,Mean TemperatureF,Min TemperatureF,Max Dew PointF,MeanDew PointF,Min DewpointF,Max Humidity, Mean Humidity, Min Humidity, Max Sea Level PressureIn, Mean Sea Level PressureIn, Min Sea Level PressureIn, Max VisibilityMiles, Mean VisibilityMiles, Min VisibilityMiles, Max Wind SpeedMPH, Mean Wind SpeedMPH, Max Gust SpeedMPH,PrecipitationIn, CloudCover, Events, WindDirDegrees
2012-3-1,42,37,32,34,31,28,92,78,64,29.90,29.79,29.60,10,9,3,26,12,33,T,7,Rain,247
2012-3-2,55,43,30,49,37,29,93,79,65,29.90,29.47,29.19,10,6,1,44,12,59,0.83,6,Rain-Thunderstorm,102
2012-3-3,38,34,30,29,25,22,76,66,56,29.79,29.62,29.41,10,8,2,39,23,48,T,8,Snow,252
2012-3-4,35,32,28,28,26,22,100,85,69,29.90,29.83,29.75,10,4,0,22,9,25,0.28,8,Fog-Snow,277
2012-3-5,31,26,21,25,20,12,92,70,47,30.44,30.13,29.88,10,7,2,17,8,21,0.04,6,Snow,333
2012-3-6,59,43,27,34,26,20,75,55,35,30.42,30.25,30.09,10,10,10,24,11,33,0.00,3,,178
2012-3-7,66,57,47,44,34,26,51,43,35,30.18,30.09,29.96,10,10,10,35,18,47,0.00,1,,205
2012-3-8,61,46,31,52,40,23,93,72,51,30.19,29.95,29.83,10,9,2,37,15,45,0.22,6,Rain,251
2012-3-9,38,32,26,28,20,13,69,53,37,30.54,30.34,30.16,10,9,3,28,15,36,T,3,Snow,291
2012-3-10,49,35,20,25,18,12,77,56,34,30.59,30.46,30.31,10,10,10,21,9,26,0.00,0,,197
2012-3-11,65,49,32,34,26,23,66,44,21,30.37,30.29,30.20,10,10,10,17,7,25,0.00,0,,205
2012-3-12,64,56,47,55,49,33,96,73,50,30.20,29.99,29.81,10,8,2,26,10,38,1.32,7,Rain-Thunderstorm,187
2012-3-13,66,55,43,55,46,31,93,62,30,30.13,29.98,29.86,10,8,1,25,11,33,0.11,3,Rain-Thunderstorm,263
2012-3-14,78,58,37,52,42,31,85,59,32,30.16,30.09,30.03,10,10,10,18,6,24,0.00,0,,193
2012-3-15,78,68,58,61,56,50,84,74,63,30.07,30.01,29.94,10,10,7,23,10,29,0.81,3,Rain-Thunderstorm,189
2012-3-16,74,66,57,60,57,53,90,76,61,30.13,30.08,30.03,10,9,1,14,6,21,T,3,Rain-Thunderstorm,188
2012-3-17,77,64,50,56,52,48,93,67,41,30.19,30.15,30.08,10,7,0,16,5,21,0.00,1,Fog,173
2012-3-18,71,62,52,61,55,53,100,79,57,30.13,30.08,30.04,10,8,0,14,5,18,T,3,Fog-Rain-Thunderstorm,204
2012-3-19,81,66,50,61,54,50,100,73,45,30.12,30.08,30.03,10,4,0,10,4,15,0.00,3,Fog,124
2012-3-20,82,69,55,59,55,52,93,65,36,30.16,30.11,30.05,10,9,2,12,4,17,0.00,0,,136
2012-3-21,85,71,56,58,55,53,86,60,34,30.19,30.13,30.07,10,10,7,15,5,18,0.00,0,,99
2012-3-22,85,69,52,59,54,51,93,64,34,30.15,30.09,30.05,10,10,6,14,3,20,T,1,Rain-Thunderstorm,61
2012-3-23,67,60,53,57,52,50,86,75,63,30.07,29.95,29.85,10,6,2,16,5,20,0.12,6,Rain,71
2012-3-24,66,58,50,55,52,48,100,84,67,29.87,29.82,29.76,10,6,0,12,4,15,0.07,7,Fog-Rain,67
2012-3-25,72,62,52,54,51,37,100,72,44,30.03,29.91,29.86,10,6,1,17,7,24,0.00,6,,334
2012-3-26,52,43,33,33,25,17,70,51,31,30.41,30.29,30.06,10,10,10,17,11,22,0.00,0,,35
2012-3-27,57,43,28,30,23,19,78,51,24,30.40,30.22,29.90,10,10,10,18,8,25,0.00,0,,148
2012-3-28,71,59,46,50,40,31,69,47,25,29.97,29.81,29.73,10,10,10,36,18,46,0.00,1,,268
2012-3-29,51,44,36,32,30,28,76,61,46,30.14,30.09,29.99,10,10,10,16,8,22,0.00,5,,42
2012-3-30,49,42,34,39,33,28,92,79,65,30.08,29.89,29.72,10,9,4,23,11,30,0.04,6,Rain-Thunderstorm,74
2012-3-31,42,39,36,35,33,32,92,80,67,30.01,29.97,29.88,10,7,4,14,5,17,0.00,8,,32